Time;durP1;ratioP1;P1;durP2;ratioP2;P2;SDS_P1;SDS_P2;PMS_P1;PMS_P2;Temp;Humidity;BMP_temperature;BMP_pressure;BME280_temperature;BME280_humidity;BME280_pressure;Samples;Min_cycle;Max_cycle;Signal;HPM_P1;HPM_P2
2023/01/25 00:01:49;;;;;;;0.50;0.10;;;3.70;99.90;;;;;;4947215;29;20467;-68
2023/01/25 00:04:18;;;;;;;1.03;1.03;;;3.70;99.90;;;;;;4947494;29;20488;-69
2023/01/25 00:06:46;;;;;;;0.50;0.20;;;3.70;99.90;;;;;;4937462;29;20974;-69
2023/01/25 00:09:14;;;;;;;0.50;0.10;;;;;;;;;;4948546;29;20455;-69
2023/01/25 00:11:43;;;;;;;0.50;0.10;;;3.70;99.90;;;;;;4956408;29;20534;-69
2023/01/25 00:14:13;;;;;;;2.80;1.53;;;3.70;99.90;;;;;;4948359;29;20970;-68
2023/01/25 00:16:41;;;;;;;1.30;0.93;;;3.70;99.90;;;;;;4950191;29;20455;-69
2023/01/25 00:19:10;;;;;;;7.13;0.73;;;3.70;99.90;;;;;;4950290;29;20495;-69
2023/01/25 00:21:39;;;;;;;0.50;0.10;;;3.70;99.90;;;;;;4937828;29;20451;-69
2023/01/25 00:24:10;;;;;;;0.50;0.20;;;3.70;99.90;;;;;;4941828;29;20481;-67
2023/01/25 00:26:38;;;;;;;0.50;0.37;;;3.70;99.90;;;;;;4938268;29;20448;-67
2023/01/25 00:29:07;;;;;;;0.50;0.20;;;3.70;99.90;;;;;;4941795;29;20830;-67
2023/01/25 00:31:46;;;;;;;0.50;0.10;;;3.70;99.90;;;;;;4953335;29;20463;-69
2023/01/25 00:34:42;;;;;;;0.50;0.10;;;3.70;99.90;;;;;;4954805;29;20446;-68
2023/01/25 00:37:24;;;;;;;0.50;0.10;;;3.70;99.90;;;;;;4948111;28;20468;-68
2023/01/25 00:39:52;;;;;;;1.87;1.70;;;3.70;99.90;;;;;;4950377;29;20474;-69
2023/01/25 00:42:20;;;;;;;0.50;0.10;;;3.70;99.90;;;;;;4957329;29;20457;-68
2023/01/25 00:44:48;;;;;;;0.50;0.10;;;3.70;99.90;;;;;;4956754;29;20479;-68
2023/01/25 00:47:18;;;;;;;1.03;0.63;;;3.70;99.90;;;;;;4956311;29;20475;-68
2023/01/25 00:49:46;;;;;;;0.50;0.10;;;3.70;99.90;;;;;;4946361;29;20456;-68
2023/01/25 00:52:14;;;;;;;0.60;0.33;;;3.70;99.90;;;;;;4939958;29;20460;-69
2023/01/25 00:54:42;;;;;;;1.00;0.57;;;3.70;99.90;;;;;;4938783;29;20459;-69
2023/01/25 00:57:10;;;;;;;0.50;0.10;;;;;;;;;;4937802;29;20483;-69
2023/01/25 00:59:43;;;;;;;2.30;1.13;;;3.60;99.90;;;;;;4945244;29;20455;-69
2023/01/25 05:02:14;;;;;;;0.50;0.10;;;3.50;99.90;;;;;;5212054;23;20884;-72
2023/01/25 05:04:42;;;;;;;0.50;0.10;;;3.50;99.90;;;;;;4936612;29;20484;-71
2023/01/25 05:07:10;;;;;;;0.50;0.10;;;3.50;99.90;;;;;;4936751;29;20465;-73
2023/01/25 05:09:38;;;;;;;0.50;0.20;;;3.50;99.90;;;;;;4932514;29;20459;-73
2023/01/25 05:12:10;;;;;;;3.80;3.00;;;3.50;99.90;;;;;;4933026;29;20531;-73
2023/01/25 05:14:38;;;;;;;0.93;0.93;;;3.30;99.90;;;;;;4958212;23;20560;-68
2023/01/25 05:17:07;;;;;;;0.50;0.20;;;3.30;99.90;;;;;;4934863;29;20505;-68
2023/01/25 05:19:36;;;;;;;0.80;0.50;;;3.20;99.90;;;;;;4940299;29;20447;-69
2023/01/25 05:22:06;;;;;;;1.97;1.80;;;3.20;99.90;;;;;;4940496;28;20459;-69
2023/01/25 05:24:35;;;;;;;0.50;0.10;;;3.20;99.90;;;;;;4930260;29;20489;-68
2023/01/25 05:27:02;;;;;;;0.90;0.87;;;;;;;;;;4936709;29;20453;-69
2023/01/25 05:29:34;;;;;;;1.57;0.50;;;3.30;99.90;;;;;;4932544;29;20465;-68
2023/01/25 05:32:03;;;;;;;0.50;0.10;;;3.30;99.90;;;;;;4930588;29;20466;-67
2023/01/25 05:34:31;;;;;;;0.50;0.10;;;3.30;99.90;;;;;;4930176;29;20477;-68
2023/01/25 05:37:01;;;;;;;0.50;0.10;;;3.30;99.90;;;;;;4936557;29;20457;-67
2023/01/25 05:39:29;;;;;;;0.50;0.10;;;3.30;99.90;;;;;;4931444;29;20459;-67
2023/01/25 05:41:56;;;;;;;0.50;0.10;;;3.30;99.90;;;;;;4933677;29;20511;-68
2023/01/25 05:44:25;;;;;;;0.50;0.10;;;3.40;99.90;;;;;;4935941;29;20478;-68
2023/01/25 05:46:53;;;;;;;3.70;1.10;;;3.40;99.90;;;;;;4934049;29;20465;-67
2023/01/25 05:49:20;;;;;;;0.50;0.10;;;3.40;99.90;;;;;;4933043;29;20461;-67
2023/01/25 05:51:48;;;;;;;2.93;1.63;;;3.40;99.90;;;;;;4936986;29;20456;-69
2023/01/25 05:54:18;;;;;;;0.50;0.10;;;3.40;99.90;;;;;;4936547;29;20839;-68
2023/01/25 05:56:48;;;;;;;0.50;0.10;;;3.40;99.90;;;;;;4937539;29;20444;-68
2023/01/25 05:59:17;;;;;;;0.77;0.77;;;3.40;99.90;;;;;;4938337;29;20444;-69
2023/01/25 06:01:44;;;;;;;0.50;0.10;;;3.40;99.90;;;;;;4936781;29;20563;-69
2023/01/25 06:04:15;;;;;;;0.50;0.10;;;3.30;99.90;;;;;;4936237;29;21020;-69
2023/01/25 06:06:43;;;;;;;0.50;0.17;;;3.30;99.90;;;;;;4935980;29;21012;-68
2023/01/25 06:09:11;;;;;;;0.50;0.10;;;3.20;99.90;;;;;;4935516;29;20456;-67
2023/01/25 06:11:43;;;;;;;0.60;0.20;;;3.20;99.90;;;;;;4935302;29;20970;-68
2023/01/25 06:14:11;;;;;;;0.70;0.63;;;3.30;99.90;;;;;;4935318;29;20490;-68
2023/01/25 06:16:39;;;;;;;0.50;0.10;;;3.30;99.90;;;;;;4935608;29;20448;-68
2023/01/25 06:19:09;;;;;;;0.50;0.10;;;3.30;99.90;;;;;;4935427;29;20456;-68
2023/01/25 06:21:37;;;;;;;0.60;0.40;;;3.30;99.90;;;;;;4935344;29;20452;-68
2023/01/25 06:24:05;;;;;;;0.50;0.10;;;3.30;99.90;;;;;;4934309;29;20476;-68
2023/01/25 06:26:33;;;;;;;0.50;0.10;;;3.30;99.90;;;;;;4916841;29;20496;-69
2023/01/25 06:29:04;;;;;;;0.50;0.10;;;3.30;99.90;;;;;;4931610;29;20456;-69
2023/01/25 06:31:32;;;;;;;0.50;0.10;;;3.30;99.90;;;;;;4931954;29;20530;-69
2023/01/25 06:34:03;;;;;;;0.50;0.10;;;3.30;99.90;;;;;;4929071;29;20500;-68
2023/01/25 06:36:31;;;;;;;0.50;0.10;;;3.30;99.90;;;;;;4930606;29;20477;-68
2023/01/25 06:38:59;;;;;;;0.50;0.10;;;3.30;99.90;;;;;;4936189;29;20452;-70
2023/01/25 06:41:28;;;;;;;0.50;0.10;;;;;;;;;;4933955;29;20456;-68
2023/01/25 06:43:56;;;;;;;0.50;0.10;;;3.40;99.90;;;;;;4930425;29;20463;-69
2023/01/25 06:46:25;;;;;;;0.60;0.50;;;3.40;99.90;;;;;;4935077;29;20490;-69
2023/01/25 06:48:53;;;;;;;0.50;0.30;;;3.40;99.90;;;;;;4935151;29;20479;-70
2023/01/25 06:51:21;;;;;;;0.50;0.10;;;3.30;99.90;;;;;;4932863;29;20463;-70
2023/01/25 06:53:48;;;;;;;2.20;1.27;;;3.30;99.90;;;;;;4929478;29;21032;-69
2023/01/25 06:56:18;;;;;;;0.50;0.10;;;3.30;99.90;;;;;;4934757;29;20448;-70
2023/01/25 06:58:46;;;;;;;0.93;0.83;;;;;;;;;;4934745;29;20832;-69
2023/01/25 07:01:17;;;;;;;0.50;0.10;;;3.20;99.90;;;;;;4934006;29;20480;-69
2023/01/25 07:03:49;;;;;;;0.50;0.10;;;3.20;99.90;;;;;;4934938;29;20474;-70
2023/01/25 07:06:17;;;;;;;1.20;0.77;;;3.20;99.90;;;;;;4934386;29;20492;-69
2023/01/25 07:08:45;;;;;;;0.50;0.10;;;3.20;99.90;;;;;;4935361;29;20533;-69
2023/01/25 07:11:14;;;;;;;0.50;0.10;;;3.20;99.90;;;;;;4934446;29;20943;-68
2023/01/25 07:13:44;;;;;;;0.50;0.10;;;3.20;99.90;;;;;;4925711;29;20497;-71
2023/01/25 07:16:15;;;;;;;0.50;0.20;;;3.20;99.90;;;;;;4930328;29;20461;-69
2023/01/25 07:18:43;;;;;;;0.50;0.10;;;3.10;99.90;;;;;;4934263;29;20464;-70
2023/01/25 07:21:14;;;;;;;2.13;2.00;;;3.10;99.90;;;;;;4934120;29;20459;-68
2023/01/25 07:23:42;;;;;;;1.03;0.60;;;3.00;99.90;;;;;;4934196;29;21002;-71
2023/01/25 07:26:15;;;;;;;0.50;0.10;;;3.00;99.90;;;;;;4919454;29;20481;-68
2023/01/25 07:28:43;;;;;;;0.70;0.70;;;3.00;99.90;;;;;;4934662;29;20447;-70
2023/01/25 07:31:11;;;;;;;0.60;0.53;;;3.00;99.90;;;;;;4934655;29;20452;-70
2023/01/25 07:33:38;;;;;;;0.50;0.20;;;2.90;99.90;;;;;;4934456;29;20475;-69
2023/01/25 07:36:08;;;;;;;0.50;0.20;;;2.90;99.90;;;;;;4934272;29;20528;-70
2023/01/25 07:38:37;;;;;;;0.60;0.30;;;2.90;99.90;;;;;;4934397;29;20456;-70
2023/01/25 07:41:05;;;;;;;1.47;1.37;;;2.90;99.90;;;;;;4933955;29;20465;-70
2023/01/25 07:43:33;;;;;;;0.50;0.10;;;3.00;99.90;;;;;;4931142;29;20493;-70
2023/01/25 07:46:02;;;;;;;0.80;0.53;;;3.00;99.90;;;;;;4934035;29;20809;-70
2023/01/25 07:48:31;;;;;;;0.50;0.10;;;3.10;99.90;;;;;;4934370;29;20461;-69
2023/01/25 07:51:11;;;;;;;0.50;0.23;;;3.10;99.90;;;;;;4934777;29;20518;-70
2023/01/25 07:53:41;;;;;;;0.50;0.40;;;3.20;99.90;;;;;;4934431;29;20834;-70
2023/01/25 07:56:11;;;;;;;0.50;0.10;;;3.20;99.90;;;;;;4934201;29;20513;-70
2023/01/25 07:58:39;;;;;;;0.50;0.10;;;3.30;99.90;;;;;;4928430;29;20441;-70
2023/01/25 08:01:08;;;;;;;0.50;0.10;;;;;;;;;;4933769;29;20474;-69
2023/01/25 08:03:36;;;;;;;0.50;0.10;;;3.30;99.90;;;;;;4933957;29;21073;-69
2023/01/25 08:06:05;;;;;;;0.50;0.10;;;3.30;99.90;;;;;;4934184;29;20942;-69
2023/01/25 08:08:34;;;;;;;1.27;1.00;;;3.30;99.90;;;;;;4934121;29;20519;-69
2023/01/25 08:11:08;;;;;;;0.50;0.10;;;3.30;99.90;;;;;;4934072;29;20954;-69
2023/01/25 08:13:36;;;;;;;0.50;0.13;;;3.30;99.90;;;;;;4925805;29;20820;-69
2023/01/25 08:16:04;;;;;;;1.70;1.50;;;3.30;99.90;;;;;;4934696;29;20468;-68
2023/01/25 08:18:32;;;;;;;0.50;0.10;;;3.30;99.90;;;;;;4937676;29;20447;-69
2023/01/25 08:21:02;;;;;;;1.57;1.47;;;3.30;99.90;;;;;;4932078;29;20477;-68
2023/01/25 08:23:30;;;;;;;2.67;1.53;;;3.30;99.90;;;;;;4931907;29;20463;-69
2023/01/25 08:26:03;;;;;;;0.70;0.53;;;4.30;99.90;;;;;;4936384;29;20465;-70
2023/01/25 08:28:31;;;;;;;0.50;0.10;;;3.30;99.90;;;;;;4936258;29;20450;-68
2023/01/25 08:31:06;;;;;;;0.50;0.10;;;3.30;99.90;;;;;;4934498;29;20499;-69
2023/01/25 08:33:34;;;;;;;0.50;0.10;;;3.20;99.90;;;;;;4937261;29;20471;-68
2023/01/25 08:36:02;;;;;;;0.50;0.17;;;;;;;;;;4937192;29;20457;-69
2023/01/25 08:38:30;;;;;;;9.77;9.33;;;3.30;99.90;;;;;;4936995;29;20466;-70
2023/01/25 08:41:06;;;;;;;0.50;0.10;;;3.20;99.90;;;;;;4938291;29;20456;-70
2023/01/25 08:43:34;;;;;;;0.50;0.10;;;3.20;99.90;;;;;;4937664;29;20484;-70
2023/01/25 08:46:02;;;;;;;0.73;0.57;;;3.20;99.90;;;;;;4932943;29;20491;-68
2023/01/25 08:48:30;;;;;;;0.50;0.10;;;3.20;99.90;;;;;;4940849;29;20451;-69
2023/01/25 08:50:58;;;;;;;0.70;0.70;;;3.20;99.90;;;;;;4940483;29;20459;-68
2023/01/25 08:53:27;;;;;;;0.50;0.20;;;3.10;99.90;;;;;;4939591;29;20477;-68
2023/01/25 08:55:55;;;;;;;0.50;0.20;;;3.10;99.90;;;;;;4937696;29;21003;-70
2023/01/25 08:58:24;;;;;;;0.50;0.10;;;3.00;99.90;;;;;;4937268;29;20510;-68
2023/01/25 09:00:52;;;;;;;0.90;0.60;;;3.00;99.90;;;;;;4937089;29;20508;-69
2023/01/25 09:03:20;;;;;;;0.70;0.40;;;2.90;99.90;;;;;;4936885;29;20932;-68
2023/01/25 09:05:47;;;;;;;0.50;0.10;;;3.00;99.90;;;;;;4937182;29;20527;-68
2023/01/25 09:08:15;;;;;;;0.50;0.10;;;2.90;99.90;;;;;;4936335;29;20482;-69
2023/01/25 09:10:43;;;;;;;0.50;0.10;;;2.90;99.90;;;;;;4936515;29;20785;-68
2023/01/25 09:13:11;;;;;;;0.50;0.10;;;2.90;99.90;;;;;;4934577;29;20470;-70
2023/01/25 09:15:40;;;;;;;0.50;0.10;;;2.90;99.90;;;;;;4934932;29;20907;-68
2023/01/25 09:18:08;;;;;;;0.50;0.10;;;2.90;99.90;;;;;;4927866;29;20450;-68
2023/01/25 09:20:38;;;;;;;0.50;0.10;;;3.00;99.90;;;;;;4934638;29;20788;-69
2023/01/25 09:23:06;;;;;;;0.50;0.10;;;;;;;;;;4936561;29;20509;-68
2023/01/25 09:25:34;;;;;;;0.50;0.10;;;3.00;99.90;;;;;;4936391;29;20509;-68
2023/01/25 09:28:09;;;;;;;0.50;0.10;;;3.00;99.90;;;;;;4935516;29;20499;-68
2023/01/25 09:30:41;;;;;;;0.50;0.10;;;3.00;99.90;;;;;;4936143;29;20440;-68
2023/01/25 09:33:16;;;;;;;0.50;0.10;;;3.00;99.90;;;;;;4933609;29;20822;-69
2023/01/25 09:35:48;;;;;;;0.50;0.10;;;3.00;99.90;;;;;;4937392;29;20887;-67
2023/01/25 09:38:16;;;;;;;0.50;0.10;;;3.10;99.90;;;;;;4936620;29;20458;-68
2023/01/25 09:40:52;;;;;;;0.50;0.30;;;3.20;99.90;;;;;;4935978;29;20974;-68
2023/01/25 09:43:36;;;;;;;0.50;0.10;;;3.10;99.90;;;;;;4936388;29;20450;-68
2023/01/25 09:46:22;;;;;;;0.77;0.30;;;3.10;99.90;;;;;;4933366;29;20792;-68
2023/01/25 09:49:00;;;;;;;0.70;0.40;;;3.10;99.90;;;;;;4935657;29;20563;-68
2023/01/25 09:51:51;;;;;;;0.50;0.10;;;3.10;99.90;;;;;;4935758;29;20471;-68
2023/01/25 09:54:20;;;;;;;0.50;0.10;;;3.00;99.90;;;;;;4936115;29;20975;-67
2023/01/25 09:56:50;;;;;;;0.60;0.60;;;3.00;99.90;;;;;;4935238;29;20461;-68
2023/01/25 09:59:25;;;;;;;1.07;0.67;;;3.00;99.90;;;;;;4935235;29;20956;-67
2023/01/25 10:01:59;;;;;;;0.50;0.10;;;3.10;99.90;;;;;;4932659;29;20447;-67
2023/01/25 10:04:30;;;;;;;0.50;0.20;;;3.10;99.90;;;;;;4934916;29;20463;-68
2023/01/25 10:07:11;;;;;;;0.50;0.10;;;3.10;99.90;;;;;;4932913;29;20456;-68
2023/01/25 10:09:46;;;;;;;0.50;0.10;;;3.20;99.90;;;;;;4934384;29;20879;-68
2023/01/25 10:12:19;;;;;;;0.50;0.10;;;3.20;99.90;;;;;;4933761;29;20448;-68
2023/01/25 10:14:47;;;;;;;0.50;0.10;;;3.30;99.90;;;;;;4929691;29;20595;-68
2023/01/25 10:17:23;;;;;;;0.50;0.10;;;3.30;99.90;;;;;;4933849;29;20539;-69
2023/01/25 10:20:03;;;;;;;0.50;0.10;;;3.40;99.90;;;;;;4933153;29;20459;-70
2023/01/25 10:22:37;;;;;;;0.50;0.10;;;3.40;99.90;;;;;;4935054;29;20444;-70
2023/01/25 10:25:18;;;;;;;0.50;0.10;;;3.40;99.90;;;;;;4934640;29;20904;-68
2023/01/25 10:28:01;;;;;;;0.50;0.10;;;3.40;99.90;;;;;;4934500;29;20487;-68
2023/01/25 10:30:31;;;;;;;0.50;0.10;;;3.50;99.90;;;;;;4934119;29;20985;-69
2023/01/25 10:33:11;;;;;;;0.50;0.23;;;3.50;99.90;;;;;;4934650;29;20455;-68
2023/01/25 10:35:44;;;;;;;0.50;0.10;;;3.60;99.90;;;;;;4934613;29;20442;-68
2023/01/25 10:38:19;;;;;;;0.50;0.20;;;3.60;99.90;;;;;;4934938;29;20976;-69
2023/01/25 10:40:52;;;;;;;1.63;1.13;;;3.70;99.90;;;;;;4935904;29;20457;-69
2023/01/25 10:43:22;;;;;;;0.50;0.10;;;3.70;99.90;;;;;;4935722;29;20447;-69
2023/01/25 10:45:51;;;;;;;0.87;0.53;;;3.70;99.90;;;;;;4933917;29;20448;-70
2023/01/25 10:48:22;;;;;;;0.50;0.20;;;3.90;99.90;;;;;;4931077;29;20560;-69
2023/01/25 10:50:52;;;;;;;0.50;0.20;;;3.70;99.90;;;;;;4918975;29;20463;-68
2023/01/25 10:53:26;;;;;;;0.50;0.10;;;3.70;99.90;;;;;;4933233;29;21000;-69
2023/01/25 10:56:00;;;;;;;0.50;0.20;;;3.70;99.90;;;;;;4926429;29;20476;-69
2023/01/25 10:58:35;;;;;;;0.50;0.10;;;0.90;99.90;;;;;;4933808;29;20451;-69
2023/01/25 11:01:07;;;;;;;1.37;1.27;;;3.80;99.90;;;;;;4933844;29;20907;-70
2023/01/25 11:03:39;;;;;;;0.50;0.10;;;3.70;99.90;;;;;;4934201;29;20520;-69
2023/01/25 11:06:08;;;;;;;0.50;0.10;;;3.70;99.90;;;;;;4928496;29;20630;-69
2023/01/25 11:08:38;;;;;;;0.50;0.10;;;3.70;99.90;;;;;;4934035;29;20479;-70
2023/01/25 11:11:24;;;;;;;0.60;0.30;;;3.70;99.90;;;;;;4934597;29;20818;-70
2023/01/25 11:13:54;;;;;;;3.33;3.13;;;3.70;99.90;;;;;;4925618;29;20864;-70
2023/01/25 11:16:34;;;;;;;0.50;0.10;;;3.70;99.90;;;;;;4932663;29;20441;-70
2023/01/25 11:19:03;;;;;;;0.50;0.10;;;3.70;99.90;;;;;;4917244;29;20445;-70
2023/01/25 11:21:33;;;;;;;0.50;0.20;;;3.70;99.90;;;;;;4932366;29;20786;-70
2023/01/25 11:24:04;;;;;;;0.50;0.10;;;3.70;99.90;;;;;;4934387;29;20478;-68
2023/01/25 11:26:36;;;;;;;0.50;0.10;;;3.70;99.90;;;;;;4933079;29;20971;-70
2023/01/25 11:29:12;;;;;;;0.50;0.10;;;3.70;99.90;;;;;;4934903;29;20485;-70
2023/01/25 11:31:44;;;;;;;0.50;0.10;;;3.70;99.90;;;;;;4927674;29;20448;-70
2023/01/25 11:34:14;;;;;;;0.50;0.20;;;3.70;99.90;;;;;;4933628;29;20568;-69
2023/01/25 11:37:02;;;;;;;0.50;0.10;;;3.70;99.90;;;;;;4933485;29;20975;-69
2023/01/25 11:39:43;;;;;;;1.23;1.23;;;3.60;99.90;;;;;;4934924;29;20447;-70
2023/01/25 11:42:24;;;;;;;0.50;0.10;;;3.60;99.90;;;;;;4934462;29;20448;-70
2023/01/25 11:45:16;;;;;;;0.77;0.77;;;3.60;99.90;;;;;;4934673;29;20472;-69
2023/01/25 11:48:01;;;;;;;0.60;0.30;;;3.60;99.90;;;;;;4932658;29;20892;-69
2023/01/25 11:50:37;;;;;;;0.50;0.10;;;3.60;99.90;;;;;;4931558;29;20781;-70
2023/01/25 11:53:29;;;;;;;0.50;0.10;;;3.50;99.90;;;;;;4935476;29;20449;-70
2023/01/25 11:56:05;;;;;;;0.50;0.10;;;3.50;99.90;;;;;;4933128;29;20834;-70
2023/01/25 11:58:53;;;;;;;0.50;0.10;;;3.50;99.90;;;;;;4933745;29;20468;-67
2023/01/25 12:01:33;;;;;;;0.50;0.10;;;3.50;99.90;;;;;;4935930;29;20451;-69
2023/01/25 12:04:32;;;;;;;0.50;0.10;;;3.50;99.90;;;;;;4938178;29;20463;-70
2023/01/25 12:07:03;;;;;;;0.50;0.10;;;3.50;99.90;;;;;;4937521;29;20497;-70
2023/01/25 12:09:52;;;;;;;0.50;0.10;;;3.40;99.90;;;;;;4937738;29;20503;-69
2023/01/25 12:12:29;;;;;;;0.50;0.17;;;3.50;99.90;;;;;;4935433;29;20451;-69
2023/01/25 12:15:18;;;;;;;0.50;0.30;;;3.50;99.90;;;;;;4931890;29;21294;-69
2023/01/25 12:18:00;;;;;;;0.50;0.10;;;3.50;99.90;;;;;;4933521;29;20449;-68
2023/01/25 12:20:42;;;;;;;0.50;0.20;;;3.50;99.90;;;;;;4936228;29;20446;-71
2023/01/25 12:23:34;;;;;;;0.50;0.10;;;3.50;99.90;;;;;;4923753;29;20454;-69
2023/01/25 12:26:15;;;;;;;2.03;1.90;;;3.50;99.90;;;;;;4941286;29;20517;-69
2023/01/25 12:28:48;;;;;;;0.50;0.10;;;3.50;99.90;;;;;;4940018;29;20483;-71
2023/01/25 12:31:22;;;;;;;0.50;0.10;;;3.50;99.90;;;;;;4938572;29;20454;-69
2023/01/25 12:33:56;;;;;;;0.50;0.10;;;3.30;99.90;;;;;;4936741;29;20886;-67
2023/01/25 12:36:28;;;;;;;2.40;2.20;;;3.30;99.90;;;;;;4937663;29;20459;-69
2023/01/25 12:39:02;;;;;;;0.50;0.10;;;3.30;99.90;;;;;;4926701;29;20509;-68
2023/01/25 12:41:38;;;;;;;1.37;1.27;;;3.30;99.90;;;;;;4924502;29;20455;-69
2023/01/25 12:44:16;;;;;;;0.50;0.10;;;3.30;99.90;;;;;;4937559;29;20538;-70
2023/01/25 12:46:51;;;;;;;0.50;0.10;;;3.30;99.90;;;;;;4937729;29;20504;-71
2023/01/25 12:49:25;;;;;;;0.70;0.63;;;3.30;99.90;;;;;;4936632;29;20891;-70
2023/01/25 12:51:56;;;;;;;0.50;0.10;;;3.30;99.90;;;;;;4937260;29;20451;-69
2023/01/25 12:54:31;;;;;;;0.90;0.77;;;3.30;99.90;;;;;;4937171;29;20474;-70
2023/01/25 12:57:16;;;;;;;0.50;0.10;;;3.30;99.90;;;;;;4937502;29;20461;-69
2023/01/25 12:59:53;;;;;;;0.60;0.37;;;3.20;99.90;;;;;;4937178;29;20473;-70
2023/01/25 13:02:50;;;;;;;0.50;0.17;;;3.30;99.90;;;;;;4936004;29;20956;-69
2023/01/25 13:05:36;;;;;;;21.80;20.77;;;3.20;99.90;;;;;;4938007;29;20684;-70
2023/01/25 13:08:15;;;;;;;0.60;0.20;;;3.30;99.90;;;;;;4937645;29;20449;-68
2023/01/25 13:11:08;;;;;;;2.93;2.83;;;3.30;99.90;;;;;;4937304;29;20433;-69
2023/01/25 13:13:36;;;;;;;0.50;0.10;;;3.20;99.90;;;;;;4924541;29;20496;-69
2023/01/25 13:16:33;;;;;;;1.23;0.77;;;3.20;99.90;;;;;;4935406;29;20460;-68
2023/01/25 13:19:01;;;;;;;0.50;0.10;;;;;;;;;;4918301;29;20440;-71
2023/01/25 13:21:40;;;;;;;0.50;0.10;;;3.10;99.90;;;;;;4922685;29;20451;-70
2023/01/25 13:24:20;;;;;;;0.50;0.40;;;3.10;99.90;;;;;;4936566;29;20468;-70
2023/01/25 13:27:01;;;;;;;0.50;0.20;;;3.10;99.90;;;;;;4937061;29;20512;-70
2023/01/25 13:29:57;;;;;;;0.50;0.10;;;3.10;99.90;;;;;;4937407;29;20483;-70
2023/01/25 13:32:55;;;;;;;0.50;0.10;;;3.10;99.90;;;;;;4937061;29;20456;-71
2023/01/25 13:35:27;;;;;;;2.17;2.07;;;3.10;99.90;;;;;;4937640;29;20484;-71
2023/01/25 13:38:00;;;;;;;0.73;0.73;;;3.10;99.90;;;;;;4937635;29;20442;-68
2023/01/25 13:40:32;;;;;;;0.70;0.70;;;3.20;99.90;;;;;;4936570;29;20449;-69
2023/01/25 13:43:03;;;;;;;0.50;0.10;;;3.20;99.90;;;;;;4937417;29;20450;-71
2023/01/25 13:45:35;;;;;;;0.50;0.10;;;3.20;99.90;;;;;;4936463;29;20464;-69
2023/01/25 13:48:13;;;;;;;0.50;0.10;;;3.10;99.90;;;;;;4938553;29;20448;-69
2023/01/25 13:50:48;;;;;;;0.50;0.10;;;3.20;99.90;;;;;;4937886;29;20489;-70
2023/01/25 13:53:21;;;;;;;2.60;2.50;;;3.20;99.90;;;;;;4936950;29;20488;-70
2023/01/25 13:55:52;;;;;;;0.50;0.10;;;3.20;99.90;;;;;;4936368;29;20459;-68
2023/01/25 13:58:22;;;;;;;0.50;0.20;;;;;;;;;;4936806;29;20458;-69
2023/01/25 14:00:54;;;;;;;0.50;0.10;;;3.10;99.90;;;;;;4938956;29;20454;-70
2023/01/25 14:03:27;;;;;;;0.50;0.10;;;3.10;99.90;;;;;;4937577;29;20504;-69
2023/01/25 14:05:57;;;;;;;0.50;0.10;;;3.10;99.90;;;;;;4937909;29;20459;-70
2023/01/25 14:08:27;;;;;;;0.50;0.10;;;3.00;99.90;;;;;;4937869;29;20443;-69
2023/01/25 14:10:56;;;;;;;2.10;2.00;;;3.00;99.90;;;;;;4936487;29;20574;-69
2023/01/25 14:13:25;;;;;;;0.50;0.10;;;3.00;99.90;;;;;;4929455;29;20453;-69
2023/01/25 14:15:58;;;;;;;0.50;0.10;;;3.00;99.90;;;;;;4918457;29;20868;-68
2023/01/25 14:18:32;;;;;;;0.50;0.20;;;3.00;99.90;;;;;;4920133;29;20466;-69
2023/01/25 14:21:16;;;;;;;0.50;0.10;;;3.00;99.90;;;;;;4918736;29;20853;-70
2023/01/25 14:23:44;;;;;;;2.73;2.63;;;3.00;99.90;;;;;;4918297;29;20472;-69
2023/01/25 14:26:18;;;;;;;2.73;2.53;;;3.00;99.90;;;;;;4917924;29;20508;-69
2023/01/25 14:28:48;;;;;;;0.50;0.10;;;3.00;99.90;;;;;;4917604;29;20453;-69
2023/01/25 14:31:33;;;;;;;0.50;0.10;;;3.00;99.90;;;;;;4917039;29;20534;-68
2023/01/25 14:34:03;;;;;;;0.50;0.10;;;3.10;99.90;;;;;;4916460;29;21065;-69
2023/01/25 14:36:34;;;;;;;0.50;0.10;;;3.10;99.90;;;;;;4920675;29;20547;-69
2023/01/25 14:39:01;;;;;;;1.20;1.10;;;3.10;99.90;;;;;;4933813;29;20450;-69
2023/01/25 14:41:34;;;;;;;0.50;0.10;;;3.20;99.90;;;;;;4933308;29;20834;-70
2023/01/25 14:44:05;;;;;;;0.50;0.10;;;3.10;99.90;;;;;;4932007;29;20471;-69
2023/01/25 14:46:34;;;;;;;0.83;0.60;;;3.20;99.90;;;;;;4932131;29;20442;-68
2023/01/25 14:49:16;;;;;;;0.50;0.10;;;3.20;99.90;;;;;;4935297;29;20452;-69
2023/01/25 14:51:48;;;;;;;0.50;0.10;;;3.10;99.90;;;;;;4934004;29;20441;-69
2023/01/25 14:54:19;;;;;;;1.60;1.13;;;3.10;99.90;;;;;;4932848;29;20463;-69
2023/01/25 14:56:49;;;;;;;0.50;0.10;;;3.00;99.90;;;;;;4935237;29;20451;-71
2023/01/25 14:59:35;;;;;;;0.50;0.20;;;2.90;99.90;;;;;;4935862;29;20443;-67
2023/01/25 15:02:15;;;;;;;0.50;0.20;;;2.90;99.90;;;;;;4934774;29;20476;-69
2023/01/25 15:04:53;;;;;;;0.50;0.10;;;2.90;99.90;;;;;;4934763;29;20520;-69
2023/01/25 15:07:36;;;;;;;0.50;0.10;;;2.90;99.90;;;;;;4934645;29;20458;-68
2023/01/25 15:10:14;;;;;;;0.50;0.10;;;2.80;99.90;;;;;;4934674;29;20480;-71
2023/01/25 15:12:42;;;;;;;0.50;0.10;;;2.80;99.90;;;;;;4932770;29;20468;-69
2023/01/25 15:15:22;;;;;;;0.50;0.40;;;2.80;99.90;;;;;;4915397;29;21012;-70
2023/01/25 15:17:50;;;;;;;0.50;0.10;;;2.90;99.90;;;;;;4929705;29;20859;-71
2023/01/25 15:20:34;;;;;;;5.13;1.43;;;2.90;99.90;;;;;;4934778;29;20452;-69
2023/01/25 15:23:12;;;;;;;0.50;0.10;;;2.80;99.90;;;;;;4934701;29;20452;-69
2023/01/25 15:25:49;;;;;;;0.50;0.10;;;2.80;99.90;;;;;;4933912;29;20496;-70
2023/01/25 15:28:17;;;;;;;0.50;0.37;;;2.90;99.90;;;;;;4935108;29;20459;-69
2023/01/25 15:30:46;;;;;;;0.50;0.10;;;2.90;99.90;;;;;;4934636;29;20487;-70
2023/01/25 15:33:19;;;;;;;0.50;0.10;;;2.90;99.90;;;;;;4938831;29;20440;-70
2023/01/25 15:35:47;;;;;;;0.87;0.67;;;2.90;99.90;;;;;;4938927;29;20515;-68
2023/01/25 15:38:15;;;;;;;0.53;0.17;;;2.80;99.90;;;;;;4955577;23;20509;-73
2023/01/25 15:40:44;;;;;;;0.50;0.10;;;2.70;99.90;;;;;;4954253;28;20459;-72
2023/01/25 15:43:13;;;;;;;0.50;0.10;;;2.80;99.90;;;;;;4953551;29;20442;-73
2023/01/25 15:45:42;;;;;;;0.50;0.10;;;2.80;99.90;;;;;;4955571;28;20453;-72
2023/01/25 15:48:16;;;;;;;14.30;12.93;;;2.80;99.90;;;;;;4959205;28;20475;-73
2023/01/25 15:50:44;;;;;;;0.50;0.10;;;2.80;99.90;;;;;;4948925;29;20476;-72
2023/01/25 15:53:14;;;;;;;0.50;0.10;;;2.90;99.90;;;;;;4949019;29;20492;-73
2023/01/25 15:55:44;;;;;;;0.50;0.20;;;2.90;99.90;;;;;;4934927;29;20479;-74
2023/01/25 15:58:17;;;;;;;0.50;0.20;;;2.90;99.90;;;;;;4932441;29;20489;-72
2023/01/25 16:00:45;;;;;;;0.50;0.10;;;2.90;99.90;;;;;;4927419;29;20455;-73
2023/01/25 16:03:14;;;;;;;1.53;0.90;;;2.90;99.90;;;;;;4933301;29;20464;-70
2023/01/25 16:05:42;;;;;;;0.50;0.30;;;2.90;99.90;;;;;;4937099;29;20473;-72
2023/01/25 16:08:15;;;;;;;0.50;0.10;;;2.90;99.90;;;;;;4934476;29;20461;-72
2023/01/25 16:10:43;;;;;;;0.97;0.97;;;2.90;99.90;;;;;;4917042;29;20881;-73
2023/01/25 16:13:11;;;;;;;2.10;1.50;;;2.80;99.90;;;;;;4922692;29;20456;-72
2023/01/25 16:15:41;;;;;;;0.50;0.10;;;2.80;99.90;;;;;;4937637;29;20463;-74
2023/01/25 16:18:14;;;;;;;0.50;0.10;;;2.80;99.90;;;;;;4929853;29;21010;-73
2023/01/25 16:20:43;;;;;;;1.77;1.67;;;2.80;99.90;;;;;;4929520;29;20465;-73
2023/01/25 16:23:11;;;;;;;0.60;0.50;;;2.80;99.90;;;;;;4935090;29;20460;-73
2023/01/25 16:25:41;;;;;;;0.50;0.10;;;2.80;99.90;;;;;;4937020;29;20819;-73
2023/01/25 16:28:14;;;;;;;0.50;0.10;;;2.80;99.90;;;;;;4937986;29;20832;-72
2023/01/25 16:30:44;;;;;;;0.50;0.10;;;2.80;99.90;;;;;;4937895;29;20483;-72
2023/01/25 16:33:13;;;;;;;1.40;1.30;;;2.80;99.90;;;;;;4934856;29;20448;-75
2023/01/25 16:35:41;;;;;;;0.50;0.10;;;;;;;;;;4945601;29;20478;-73
2023/01/25 16:38:11;;;;;;;0.50;0.10;;;2.70;99.90;;;;;;4944822;29;20562;-74
2023/01/25 16:40:39;;;;;;;2.67;2.57;;;2.70;99.90;;;;;;4940879;29;20483;-71
2023/01/25 16:43:07;;;;;;;0.50;0.10;;;2.70;99.90;;;;;;4940105;29;20458;-72
2023/01/25 16:45:35;;;;;;;2.40;2.20;;;2.70;99.90;;;;;;4941097;29;20447;-72
2023/01/25 16:48:03;;;;;;;0.50;0.10;;;2.70;99.90;;;;;;4940850;29;20467;-72
2023/01/25 16:50:32;;;;;;;0.50;0.10;;;2.70;99.90;;;;;;4931320;29;20461;-72
2023/01/25 16:53:00;;;;;;;0.60;0.50;;;2.70;99.90;;;;;;4927326;29;20457;-72
2023/01/25 16:55:28;;;;;;;3.47;3.20;;;;;;;;;;4936723;29;20454;-71
2023/01/25 16:57:56;;;;;;;0.50;0.10;;;2.70;99.90;;;;;;4940854;29;20477;-72
2023/01/25 17:00:24;;;;;;;0.50;0.10;;;2.70;99.90;;;;;;4943178;29;20456;-73
2023/01/25 17:02:52;;;;;;;0.50;0.10;;;2.80;99.90;;;;;;4947728;29;20453;-72
2023/01/25 17:05:30;;;;;;;0.50;0.10;;;2.80;99.90;;;;;;4946276;29;20447;-72
2023/01/25 17:08:01;;;;;;;0.50;0.10;;;2.80;99.90;;;;;;4939950;29;20515;-72
2023/01/25 17:10:33;;;;;;;0.50;0.17;;;2.80;99.90;;;;;;4921291;29;20889;-72
2023/01/25 17:13:01;;;;;;;0.50;0.10;;;2.70;99.90;;;;;;4939650;29;20455;-73
2023/01/25 17:15:29;;;;;;;0.50;0.10;;;2.70;99.90;;;;;;4941218;29;20436;-72
2023/01/25 17:17:57;;;;;;;7.80;1.03;;;2.70;99.90;;;;;;4947906;29;20456;-72
2023/01/25 17:20:25;;;;;;;0.50;0.10;;;2.80;99.90;;;;;;4942174;29;20549;-73
2023/01/25 17:22:53;;;;;;;0.50;0.10;;;2.80;99.90;;;;;;4938450;29;20871;-73
2023/01/25 17:25:22;;;;;;;0.60;0.40;;;2.70;99.90;;;;;;4937376;29;20503;-73
2023/01/25 17:27:50;;;;;;;0.50;0.10;;;2.70;99.90;;;;;;4932769;29;20454;-74